UAL1137 KLAX-MGGT
Flight info
| Callsign | UAL1137 |
|---|---|
| Flight time | 4h 29m |
| Altitude | 35000 |
| Route | PNDAH2 TCATE DCT PPE UL655 CDR/N0462F370 UL655 ASOKU ASOKU2C |
| Aircraft | B38M/M-SDE1FGHILORVWXY/HB1 |
Departure
| Time | 2026-04-18 05:37 |
|---|---|
| Airport | Los Angeles International Airport (KLAX) |
Arrival
| Time | 2026-04-18 10:06 |
|---|---|
| Airport | La Aurora International Airport (MGGT) |
| Time | Latitude | Longitude | Altitude | Speed | Heading |
|---|---|---|---|---|---|
| 2026-04-18 05:15 | 33.94182 | -118.39906 | 128 ft | 0 kts | 263° |
| 2026-04-18 05:24 | 33.94183 | -118.39897 | 128 ft | 2 kts | 260° |
| 2026-04-18 05:24 | 33.94185 | -118.39877 | 123 ft | 2 kts | 264° |
| 2026-04-18 05:24 | 33.94187 | -118.39857 | 125 ft | 2 kts | 251° |
| 2026-04-18 05:25 | 33.94198 | -118.39844 | 127 ft | 2 kts | 183° |
| 2026-04-18 05:25 | 33.94215 | -118.39845 | 123 ft | 2 kts | 173° |
| 2026-04-18 05:25 | 33.94226 | -118.39847 | 124 ft | 0 kts | 173° |
| 2026-04-18 05:28 | 33.94223 | -118.39846 | 125 ft | 1 kts | 173° |
| 2026-04-18 05:28 | 33.94207 | -118.39844 | 124 ft | 3 kts | 173° |
| 2026-04-18 05:29 | 33.94179 | -118.39839 | 123 ft | 5 kts | 171° |
| 2026-04-18 05:29 | 33.94152 | -118.39834 | 127 ft | 1 kts | 172° |
| 2026-04-18 05:29 | 33.94148 | -118.39834 | 125 ft | 1 kts | 173° |
| 2026-04-18 05:29 | 33.94125 | -118.39831 | 124 ft | 6 kts | 175° |
| 2026-04-18 05:30 | 33.94078 | -118.39827 | 126 ft | 7 kts | 178° |
| 2026-04-18 05:30 | 33.94023 | -118.39824 | 126 ft | 9 kts | 175° |
| 2026-04-18 05:30 | 33.93960 | -118.39813 | 125 ft | 10 kts | 167° |
| 2026-04-18 05:30 | 33.93911 | -118.39762 | 127 ft | 10 kts | 110° |
| 2026-04-18 05:31 | 33.93912 | -118.39677 | 124 ft | 11 kts | 82° |
| 2026-04-18 05:31 | 33.93922 | -118.39583 | 128 ft | 12 kts | 84° |
| 2026-04-18 05:31 | 33.93931 | -118.39478 | 128 ft | 13 kts | 84° |
| 2026-04-18 05:31 | 33.93944 | -118.39364 | 128 ft | 14 kts | 82° |
| 2026-04-18 05:32 | 33.93957 | -118.39242 | 128 ft | 15 kts | 83° |
| 2026-04-18 05:32 | 33.93971 | -118.39111 | 126 ft | 16 kts | 83° |
| 2026-04-18 05:32 | 33.93985 | -118.38970 | 126 ft | 17 kts | 85° |
| 2026-04-18 05:32 | 33.93999 | -118.38823 | 124 ft | 18 kts | 83° |
| 2026-04-18 05:33 | 33.94014 | -118.38671 | 125 ft | 19 kts | 83° |
| 2026-04-18 05:33 | 33.94030 | -118.38512 | 128 ft | 20 kts | 82° |
| 2026-04-18 05:33 | 33.94048 | -118.38345 | 128 ft | 20 kts | 83° |
| 2026-04-18 05:33 | 33.94064 | -118.38178 | 128 ft | 19 kts | 83° |
| 2026-04-18 05:34 | 33.94077 | -118.38049 | 128 ft | 9 kts | 90° |
| 2026-04-18 05:34 | 33.94074 | -118.38033 | 128 ft | 0 kts | 110° |
| 2026-04-18 05:35 | 33.94073 | -118.38031 | 128 ft | 2 kts | 119° |
| 2026-04-18 05:35 | 33.94010 | -118.37998 | 125 ft | 10 kts | 189° |
| 2026-04-18 05:36 | 33.93982 | -118.38041 | 124 ft | 8 kts | 259° |
| 2026-04-18 05:36 | 33.93969 | -118.38169 | 128 ft | 46 kts | 263° |
| 2026-04-18 05:36 | 33.93897 | -118.38875 | 128 ft | 120 kts | 263° |
| 2026-04-18 05:36 | 33.93765 | -118.40119 | 150 ft | 174 kts | 261° |
| 2026-04-18 05:37 | 33.93609 | -118.41616 | 794 ft | 180 kts | 262° |
| 2026-04-18 05:37 | 33.93455 | -118.43094 | 1697 ft | 176 kts | 264° |
| 2026-04-18 05:37 | 33.93311 | -118.44553 | 2324 ft | 180 kts | 265° |
| 2026-04-18 05:37 | 33.93021 | -118.46071 | 2692 ft | 196 kts | 242° |
| 2026-04-18 05:38 | 33.92016 | -118.47246 | 3036 ft | 211 kts | 208° |
| 2026-04-18 05:38 | 33.90612 | -118.47934 | 3405 ft | 225 kts | 198° |
| 2026-04-18 05:38 | 33.89002 | -118.48322 | 3638 ft | 253 kts | 189° |
| 2026-04-18 05:38 | 33.87187 | -118.48657 | 4148 ft | 271 kts | 189° |
| 2026-04-18 05:39 | 33.85305 | -118.49015 | 5017 ft | 273 kts | 189° |
| 2026-04-18 05:39 | 33.83438 | -118.49376 | 6043 ft | 270 kts | 188° |
| 2026-04-18 05:39 | 33.81568 | -118.49743 | 6914 ft | 274 kts | 188° |
| 2026-04-18 05:39 | 33.79671 | -118.50117 | 7702 ft | 278 kts | 189° |
| 2026-04-18 05:40 | 33.77747 | -118.50498 | 8472 ft | 283 kts | 189° |
| 2026-04-18 05:40 | 33.75805 | -118.50883 | 9244 ft | 288 kts | 189° |
| 2026-04-18 05:40 | 33.73809 | -118.51277 | 10004 ft | 293 kts | 189° |
| 2026-04-18 05:40 | 33.71735 | -118.51324 | 10513 ft | 306 kts | 169° |
| 2026-04-18 05:41 | 33.69712 | -118.50355 | 10853 ft | 324 kts | 146° |
| 2026-04-18 05:41 | 33.68103 | -118.48380 | 11166 ft | 342 kts | 122° |
| 2026-04-18 05:41 | 33.66997 | -118.45772 | 11515 ft | 358 kts | 117° |
| 2026-04-18 05:41 | 33.65857 | -118.43094 | 11880 ft | 371 kts | 117° |
| 2026-04-18 05:42 | 33.64669 | -118.40324 | 12584 ft | 372 kts | 117° |
| 2026-04-18 05:42 | 33.63476 | -118.37548 | 13245 ft | 377 kts | 117° |
| 2026-04-18 05:42 | 33.62265 | -118.34737 | 13900 ft | 380 kts | 117° |
| 2026-04-18 05:42 | 33.61045 | -118.31907 | 14491 ft | 384 kts | 117° |
| 2026-04-18 05:43 | 33.59808 | -118.29041 | 15097 ft | 387 kts | 117° |
| 2026-04-18 05:43 | 33.58584 | -118.26205 | 15692 ft | 390 kts | 117° |
| 2026-04-18 05:43 | 33.57323 | -118.23289 | 16286 ft | 393 kts | 117° |
| 2026-04-18 05:43 | 33.56054 | -118.20355 | 16871 ft | 397 kts | 117° |
| 2026-04-18 05:44 | 33.54775 | -118.17400 | 17429 ft | 401 kts | 117° |
| 2026-04-18 05:44 | 33.53501 | -118.14447 | 17987 ft | 404 kts | 117° |
| 2026-04-18 05:44 | 33.52208 | -118.11439 | 18494 ft | 408 kts | 117° |
| 2026-04-18 05:44 | 33.50898 | -118.08396 | 18989 ft | 411 kts | 117° |
| 2026-04-18 05:45 | 33.49578 | -118.05334 | 19413 ft | 414 kts | 117° |
| 2026-04-18 05:45 | 33.48268 | -118.02298 | 19931 ft | 415 kts | 117° |
| 2026-04-18 05:45 | 33.46750 | -117.99335 | 20392 ft | 419 kts | 130° |
| 2026-04-18 05:45 | 33.44670 | -117.96875 | 20871 ft | 420 kts | 137° |
| 2026-04-18 05:46 | 33.42502 | -117.94494 | 21317 ft | 425 kts | 138° |
| 2026-04-18 05:46 | 33.40301 | -117.92114 | 21791 ft | 427 kts | 138° |
| 2026-04-18 05:46 | 33.38100 | -117.89759 | 22240 ft | 430 kts | 139° |
| 2026-04-18 05:46 | 33.35851 | -117.87367 | 22693 ft | 433 kts | 139° |
| 2026-04-18 05:47 | 33.33579 | -117.84956 | 23141 ft | 437 kts | 139° |
| 2026-04-18 05:47 | 33.31290 | -117.82531 | 23570 ft | 440 kts | 139° |
| 2026-04-18 05:47 | 33.29018 | -117.80126 | 23957 ft | 442 kts | 139° |
| 2026-04-18 05:47 | 33.26707 | -117.77682 | 24324 ft | 445 kts | 139° |
| 2026-04-18 05:48 | 33.24377 | -117.75219 | 24688 ft | 448 kts | 139° |
| 2026-04-18 05:48 | 33.22032 | -117.72742 | 25034 ft | 450 kts | 139° |
| 2026-04-18 05:48 | 33.19671 | -117.70250 | 25420 ft | 453 kts | 139° |
| 2026-04-18 05:48 | 33.17437 | -117.67659 | 25758 ft | 455 kts | 129° |
| 2026-04-18 05:49 | 33.15768 | -117.64442 | 26138 ft | 456 kts | 113° |
| 2026-04-18 05:49 | 33.14608 | -117.60899 | 26449 ft | 459 kts | 110° |
| 2026-04-18 05:49 | 33.13496 | -117.57306 | 26764 ft | 462 kts | 109° |
| 2026-04-18 05:49 | 33.12401 | -117.53684 | 27110 ft | 464 kts | 109° |
| 2026-04-18 05:50 | 33.11314 | -117.50036 | 27443 ft | 467 kts | 109° |
| 2026-04-18 05:50 | 33.10244 | -117.46419 | 27762 ft | 469 kts | 109° |
| 2026-04-18 05:50 | 33.09154 | -117.42731 | 28080 ft | 471 kts | 109° |
| 2026-04-18 05:50 | 33.08055 | -117.39015 | 28402 ft | 474 kts | 109° |
| 2026-04-18 05:51 | 33.07007 | -117.35479 | 28695 ft | 476 kts | 109° |
| 2026-04-18 05:51 | 33.05901 | -117.31746 | 29002 ft | 478 kts | 109° |
| 2026-04-18 05:51 | 33.04789 | -117.28001 | 29304 ft | 480 kts | 109° |
| 2026-04-18 05:51 | 33.03681 | -117.24272 | 29604 ft | 483 kts | 109° |
| 2026-04-18 05:52 | 33.02554 | -117.20486 | 29911 ft | 484 kts | 109° |
| 2026-04-18 05:52 | 33.01422 | -117.16687 | 30302 ft | 484 kts | 109° |
| 2026-04-18 05:52 | 33.00299 | -117.12920 | 30687 ft | 483 kts | 109° |
| 2026-04-18 05:52 | 32.99184 | -117.09189 | 31037 ft | 482 kts | 109° |
| 2026-04-18 05:53 | 32.98055 | -117.05414 | 31383 ft | 481 kts | 109° |
| 2026-04-18 05:53 | 32.96927 | -117.01647 | 31733 ft | 481 kts | 109° |
| 2026-04-18 05:53 | 32.95803 | -116.97899 | 32090 ft | 480 kts | 109° |
| 2026-04-18 05:53 | 32.94689 | -116.94188 | 32430 ft | 479 kts | 109° |
| 2026-04-18 05:54 | 32.93566 | -116.90452 | 32775 ft | 479 kts | 109° |
| 2026-04-18 05:54 | 32.92441 | -116.86713 | 33089 ft | 479 kts | 109° |
| 2026-04-18 05:54 | 32.91313 | -116.82973 | 33403 ft | 478 kts | 109° |
| 2026-04-18 05:54 | 32.90197 | -116.79272 | 33723 ft | 478 kts | 109° |
| 2026-04-18 05:55 | 32.89075 | -116.75556 | 34064 ft | 477 kts | 109° |
| 2026-04-18 05:55 | 32.87950 | -116.71840 | 34308 ft | 477 kts | 109° |
| 2026-04-18 05:55 | 32.86826 | -116.68128 | 34544 ft | 477 kts | 109° |
| 2026-04-18 05:55 | 32.85710 | -116.64448 | 34787 ft | 477 kts | 110° |
| 2026-04-18 05:56 | 32.84581 | -116.60730 | 34997 ft | 478 kts | 110° |
| 2026-04-18 05:56 | 32.83447 | -116.56994 | 35070 ft | 479 kts | 110° |
| 2026-04-18 05:56 | 32.81185 | -116.49570 | 35077 ft | 478 kts | 111° |
| 2026-04-18 05:57 | 32.76674 | -116.39014 | 35077 ft | 478 kts | 117° |
| 2026-04-18 05:58 | 32.73629 | -116.32016 | 35078 ft | 478 kts | 117° |
| 2026-04-18 05:58 | 32.70569 | -116.24987 | 35076 ft | 478 kts | 118° |
| 2026-04-18 05:59 | 32.67501 | -116.17955 | 35079 ft | 479 kts | 118° |
| 2026-04-18 05:59 | 32.64453 | -116.10981 | 35073 ft | 479 kts | 118° |
| 2026-04-18 06:00 | 32.61369 | -116.03939 | 35071 ft | 479 kts | 118° |
| 2026-04-18 06:00 | 32.58307 | -115.96961 | 35065 ft | 480 kts | 118° |
| 2026-04-18 06:01 | 32.55217 | -115.89935 | 35056 ft | 479 kts | 118° |
| 2026-04-18 06:01 | 32.52125 | -115.82916 | 35058 ft | 480 kts | 118° |
| 2026-04-18 06:02 | 32.49048 | -115.75944 | 35062 ft | 479 kts | 118° |
| 2026-04-18 06:02 | 32.45946 | -115.68929 | 35053 ft | 479 kts | 118° |
| 2026-04-18 06:03 | 32.42841 | -115.61921 | 35034 ft | 479 kts | 118° |
| 2026-04-18 06:03 | 32.39752 | -115.54963 | 35015 ft | 479 kts | 118° |
| 2026-04-18 06:04 | 32.36643 | -115.47973 | 35007 ft | 479 kts | 118° |
| 2026-04-18 06:04 | 32.33528 | -115.40984 | 34995 ft | 479 kts | 119° |
| 2026-04-18 06:05 | 32.30429 | -115.34044 | 34987 ft | 479 kts | 119° |
| 2026-04-18 06:05 | 32.27314 | -115.27081 | 34988 ft | 480 kts | 119° |
| 2026-04-18 06:06 | 32.24185 | -115.20101 | 34985 ft | 480 kts | 119° |
| 2026-04-18 06:06 | 32.21071 | -115.13167 | 34981 ft | 480 kts | 119° |
| 2026-04-18 06:07 | 32.17929 | -115.06184 | 34976 ft | 480 kts | 119° |
| 2026-04-18 06:07 | 32.14800 | -114.99242 | 34979 ft | 481 kts | 119° |
| 2026-04-18 06:08 | 32.11651 | -114.92269 | 34980 ft | 481 kts | 119° |
| 2026-04-18 06:08 | 32.08514 | -114.85339 | 34978 ft | 481 kts | 119° |
| 2026-04-18 06:09 | 32.05361 | -114.78383 | 34975 ft | 481 kts | 119° |
| 2026-04-18 06:09 | 32.02194 | -114.71411 | 34973 ft | 481 kts | 120° |
| 2026-04-18 06:10 | 31.99048 | -114.64499 | 34971 ft | 481 kts | 120° |
| 2026-04-18 06:10 | 31.95873 | -114.57536 | 34972 ft | 481 kts | 120° |
| 2026-04-18 06:11 | 31.92695 | -114.50578 | 34969 ft | 481 kts | 120° |
| 2026-04-18 06:11 | 31.89527 | -114.43655 | 34967 ft | 482 kts | 120° |
| 2026-04-18 06:12 | 31.86356 | -114.36740 | 34971 ft | 482 kts | 120° |
| 2026-04-18 06:12 | 31.83157 | -114.29777 | 34969 ft | 482 kts | 120° |
| 2026-04-18 06:13 | 31.79981 | -114.22876 | 34965 ft | 482 kts | 120° |
| 2026-04-18 06:13 | 31.76779 | -114.15933 | 34956 ft | 482 kts | 120° |
| 2026-04-18 06:14 | 31.73592 | -114.09035 | 34956 ft | 482 kts | 120° |
| 2026-04-18 06:14 | 31.70379 | -114.02093 | 34958 ft | 482 kts | 120° |
| 2026-04-18 06:15 | 31.67165 | -113.95160 | 34957 ft | 483 kts | 120° |
| 2026-04-18 06:15 | 31.63945 | -113.88229 | 34950 ft | 483 kts | 120° |
| 2026-04-18 06:16 | 31.60735 | -113.81333 | 34950 ft | 483 kts | 120° |
| 2026-04-18 06:16 | 31.57510 | -113.74414 | 34952 ft | 483 kts | 121° |
| 2026-04-18 06:17 | 31.54274 | -113.67488 | 34950 ft | 484 kts | 121° |
| 2026-04-18 06:17 | 31.51037 | -113.60570 | 34946 ft | 484 kts | 121° |
| 2026-04-18 06:18 | 31.47805 | -113.53675 | 34943 ft | 484 kts | 121° |
| 2026-04-18 06:18 | 31.44555 | -113.46751 | 34946 ft | 484 kts | 121° |
| 2026-04-18 06:19 | 31.41323 | -113.39879 | 34943 ft | 484 kts | 121° |
| 2026-04-18 06:19 | 31.38071 | -113.32976 | 34944 ft | 484 kts | 121° |
| 2026-04-18 06:20 | 31.34600 | -113.26282 | 34946 ft | 483 kts | 124° |
| 2026-04-18 06:20 | 31.31040 | -113.19607 | 34941 ft | 483 kts | 124° |
| 2026-04-18 06:21 | 31.27485 | -113.12920 | 34944 ft | 483 kts | 124° |
| 2026-04-18 06:21 | 31.24532 | -113.07371 | 34944 ft | 483 kts | 124° |
| 2026-04-18 06:22 | 31.20980 | -113.00708 | 34945 ft | 483 kts | 124° |
| 2026-04-18 06:22 | 31.17437 | -112.94072 | 34944 ft | 483 kts | 124° |
| 2026-04-18 06:23 | 31.13893 | -112.87446 | 34951 ft | 483 kts | 125° |
| 2026-04-18 06:23 | 31.10321 | -112.80779 | 34950 ft | 483 kts | 125° |
| 2026-04-18 06:24 | 31.06775 | -112.74172 | 34945 ft | 483 kts | 125° |
| 2026-04-18 06:24 | 31.03197 | -112.67518 | 34948 ft | 483 kts | 125° |
| 2026-04-18 06:25 | 30.99619 | -112.60873 | 34946 ft | 483 kts | 125° |
| 2026-04-18 06:25 | 30.96068 | -112.54291 | 34953 ft | 483 kts | 125° |
| 2026-04-18 06:26 | 30.92484 | -112.47657 | 34939 ft | 482 kts | 125° |
| 2026-04-18 06:26 | 30.88905 | -112.41046 | 34949 ft | 482 kts | 125° |
| 2026-04-18 06:27 | 30.85340 | -112.34470 | 34947 ft | 482 kts | 125° |
| 2026-04-18 06:27 | 30.81744 | -112.27849 | 34945 ft | 482 kts | 125° |
| 2026-04-18 06:28 | 30.78176 | -112.21290 | 34929 ft | 482 kts | 125° |
| 2026-04-18 06:28 | 30.74581 | -112.14693 | 34926 ft | 482 kts | 125° |
| 2026-04-18 06:29 | 30.70983 | -112.08101 | 34930 ft | 482 kts | 125° |
| 2026-04-18 06:29 | 30.67402 | -112.01552 | 34936 ft | 482 kts | 125° |
| 2026-04-18 06:30 | 30.63789 | -111.94955 | 34936 ft | 482 kts | 125° |
| 2026-04-18 06:30 | 30.60204 | -111.88420 | 34926 ft | 482 kts | 125° |
| 2026-04-18 06:31 | 30.56596 | -111.81853 | 34930 ft | 482 kts | 125° |
| 2026-04-18 06:31 | 30.52978 | -111.75280 | 34925 ft | 482 kts | 125° |
| 2026-04-18 06:32 | 30.49384 | -111.68760 | 34928 ft | 483 kts | 125° |
| 2026-04-18 06:32 | 30.45758 | -111.62193 | 34936 ft | 483 kts | 126° |
| 2026-04-18 06:33 | 30.42128 | -111.55630 | 34936 ft | 483 kts | 126° |
| 2026-04-18 06:33 | 30.38513 | -111.49106 | 34935 ft | 483 kts | 126° |
| 2026-04-18 06:34 | 30.34871 | -111.42543 | 34941 ft | 483 kts | 126° |
| 2026-04-18 06:34 | 30.31234 | -111.36000 | 34944 ft | 483 kts | 126° |
| 2026-04-18 06:35 | 30.27611 | -111.29493 | 34943 ft | 483 kts | 126° |
| 2026-04-18 06:35 | 30.23964 | -111.22952 | 34946 ft | 483 kts | 127° |
| 2026-04-18 06:36 | 30.20312 | -111.16413 | 34948 ft | 483 kts | 127° |
| 2026-04-18 06:36 | 30.16681 | -111.09918 | 34949 ft | 483 kts | 127° |
| 2026-04-18 06:37 | 30.13022 | -111.03385 | 34947 ft | 483 kts | 127° |
| 2026-04-18 06:37 | 30.09396 | -110.96894 | 34953 ft | 483 kts | 128° |
| 2026-04-18 06:38 | 30.05747 | -110.90356 | 34953 ft | 483 kts | 128° |
| 2026-04-18 06:38 | 30.02098 | -110.83826 | 34950 ft | 484 kts | 128° |
| 2026-04-18 06:39 | 29.98453 | -110.77316 | 34950 ft | 484 kts | 129° |
| 2026-04-18 06:39 | 29.94795 | -110.70791 | 34951 ft | 484 kts | 129° |
| 2026-04-18 06:40 | 29.91155 | -110.64309 | 34978 ft | 484 kts | 129° |
| 2026-04-18 06:40 | 29.87480 | -110.57776 | 34954 ft | 485 kts | 130° |
| 2026-04-18 06:41 | 29.83794 | -110.51234 | 34956 ft | 485 kts | 130° |
| 2026-04-18 06:41 | 29.80131 | -110.44743 | 34960 ft | 485 kts | 130° |
| 2026-04-18 06:42 | 29.76448 | -110.38228 | 34965 ft | 485 kts | 130° |
| 2026-04-18 06:42 | 29.72767 | -110.31726 | 34957 ft | 486 kts | 130° |
| 2026-04-18 06:43 | 29.69063 | -110.25193 | 34956 ft | 487 kts | 131° |
| 2026-04-18 06:43 | 29.65352 | -110.18660 | 34967 ft | 487 kts | 131° |
| 2026-04-18 06:44 | 29.61663 | -110.12174 | 34973 ft | 487 kts | 132° |
| 2026-04-18 06:44 | 29.57947 | -110.05653 | 34967 ft | 487 kts | 132° |
| 2026-04-18 06:45 | 29.54220 | -109.99122 | 34974 ft | 488 kts | 133° |
| 2026-04-18 06:45 | 29.50523 | -109.92652 | 34969 ft | 487 kts | 133° |
| 2026-04-18 06:46 | 29.46795 | -109.86141 | 34968 ft | 487 kts | 133° |
| 2026-04-18 06:46 | 29.43058 | -109.79623 | 34983 ft | 488 kts | 134° |
| 2026-04-18 06:47 | 29.39347 | -109.73160 | 34957 ft | 487 kts | 134° |
| 2026-04-18 06:47 | 29.35608 | -109.66661 | 34938 ft | 487 kts | 134° |
| 2026-04-18 06:48 | 29.31889 | -109.60205 | 34956 ft | 487 kts | 134° |
| 2026-04-18 06:48 | 29.28148 | -109.53722 | 34960 ft | 486 kts | 134° |
| 2026-04-18 06:49 | 29.24416 | -109.47264 | 34955 ft | 485 kts | 134° |
| 2026-04-18 06:49 | 29.20698 | -109.40840 | 34954 ft | 486 kts | 134° |
| 2026-04-18 06:50 | 29.16948 | -109.34372 | 34972 ft | 486 kts | 134° |
| 2026-04-18 06:50 | 29.13229 | -109.27966 | 34967 ft | 485 kts | 134° |
| 2026-04-18 06:51 | 29.09482 | -109.21524 | 34982 ft | 486 kts | 134° |
| 2026-04-18 06:51 | 29.05754 | -109.15121 | 34990 ft | 486 kts | 134° |
| 2026-04-18 06:52 | 29.02002 | -109.08690 | 34996 ft | 486 kts | 134° |
| 2026-04-18 06:52 | 28.98248 | -109.02265 | 35010 ft | 486 kts | 134° |
| 2026-04-18 06:53 | 28.94513 | -108.95879 | 35003 ft | 486 kts | 134° |
| 2026-04-18 06:53 | 28.90740 | -108.89441 | 35019 ft | 485 kts | 135° |
| 2026-04-18 06:54 | 28.87005 | -108.83079 | 35022 ft | 485 kts | 135° |
| 2026-04-18 06:54 | 28.83245 | -108.76681 | 35021 ft | 484 kts | 135° |
| 2026-04-18 06:55 | 28.79508 | -108.70331 | 35012 ft | 483 kts | 135° |
| 2026-04-18 06:55 | 28.75754 | -108.63962 | 34999 ft | 483 kts | 135° |
| 2026-04-18 06:56 | 28.71994 | -108.57590 | 35030 ft | 483 kts | 135° |
| 2026-04-18 06:56 | 28.68265 | -108.51284 | 35043 ft | 482 kts | 135° |
| 2026-04-18 06:57 | 28.64504 | -108.44963 | 35039 ft | 481 kts | 135° |
| 2026-04-18 06:57 | 28.58897 | -108.35546 | 35049 ft | 480 kts | 135° |
| 2026-04-18 06:58 | 28.55149 | -108.29262 | 35045 ft | 480 kts | 135° |
| 2026-04-18 06:58 | 28.51401 | -108.22990 | 35056 ft | 480 kts | 135° |
| 2026-04-18 06:59 | 28.47652 | -108.16722 | 35064 ft | 480 kts | 135° |
| 2026-04-18 06:59 | 28.43872 | -108.10412 | 35076 ft | 480 kts | 135° |
| 2026-04-18 07:00 | 28.40124 | -108.04167 | 35075 ft | 479 kts | 135° |
| 2026-04-18 07:00 | 28.36376 | -107.97928 | 35069 ft | 479 kts | 135° |
| 2026-04-18 07:01 | 28.32636 | -107.91713 | 35067 ft | 478 kts | 135° |
| 2026-04-18 07:01 | 28.28865 | -107.85456 | 35080 ft | 478 kts | 135° |
| 2026-04-18 07:02 | 28.25122 | -107.79253 | 35076 ft | 478 kts | 135° |
| 2026-04-18 07:02 | 28.21378 | -107.73060 | 35078 ft | 477 kts | 135° |
| 2026-04-18 07:03 | 28.17618 | -107.66845 | 35084 ft | 477 kts | 135° |
| 2026-04-18 07:03 | 28.13851 | -107.60634 | 35081 ft | 477 kts | 135° |
| 2026-04-18 07:04 | 28.10101 | -107.54459 | 35062 ft | 477 kts | 135° |
| 2026-04-18 07:04 | 28.06349 | -107.48291 | 35083 ft | 477 kts | 135° |
| 2026-04-18 07:05 | 28.02574 | -107.42094 | 35074 ft | 476 kts | 135° |
| 2026-04-18 07:05 | 27.98809 | -107.35921 | 35078 ft | 476 kts | 135° |
| 2026-04-18 07:06 | 27.95052 | -107.29770 | 35065 ft | 476 kts | 135° |
| 2026-04-18 07:06 | 27.91283 | -107.23609 | 35064 ft | 476 kts | 135° |
| 2026-04-18 07:07 | 27.87543 | -107.17503 | 35058 ft | 476 kts | 135° |
| 2026-04-18 07:07 | 27.83778 | -107.11365 | 35052 ft | 476 kts | 135° |
| 2026-04-18 07:08 | 27.80045 | -107.05289 | 35048 ft | 475 kts | 135° |
| 2026-04-18 07:08 | 27.76271 | -106.99153 | 35040 ft | 475 kts | 135° |
| 2026-04-18 07:09 | 27.73135 | -106.94062 | 35043 ft | 475 kts | 135° |
| 2026-04-18 07:09 | 27.68747 | -106.86947 | 35012 ft | 474 kts | 135° |
| 2026-04-18 07:10 | 27.65597 | -106.81849 | 35023 ft | 476 kts | 136° |
| 2026-04-18 07:10 | 27.61803 | -106.75714 | 35007 ft | 476 kts | 136° |
| 2026-04-18 07:11 | 27.58030 | -106.69622 | 35013 ft | 477 kts | 136° |
| 2026-04-18 07:11 | 27.54219 | -106.63479 | 35004 ft | 476 kts | 136° |
| 2026-04-18 07:12 | 27.50422 | -106.57365 | 35007 ft | 477 kts | 136° |
| 2026-04-18 07:12 | 27.46627 | -106.51263 | 34985 ft | 477 kts | 136° |
| 2026-04-18 07:13 | 27.42811 | -106.45135 | 34977 ft | 477 kts | 137° |
| 2026-04-18 07:13 | 27.38989 | -106.39006 | 34978 ft | 477 kts | 136° |
| 2026-04-18 07:14 | 27.35195 | -106.32931 | 34976 ft | 476 kts | 136° |
| 2026-04-18 07:14 | 27.31373 | -106.26820 | 34967 ft | 476 kts | 136° |
| 2026-04-18 07:15 | 27.27578 | -106.20761 | 34961 ft | 475 kts | 136° |
| 2026-04-18 07:15 | 27.23761 | -106.14674 | 34957 ft | 476 kts | 137° |
| 2026-04-18 07:16 | 27.19938 | -106.08588 | 34960 ft | 476 kts | 136° |
| 2026-04-18 07:16 | 27.16099 | -106.02482 | 34959 ft | 477 kts | 137° |
| 2026-04-18 07:17 | 27.12280 | -105.96418 | 34947 ft | 477 kts | 137° |
| 2026-04-18 07:17 | 27.08439 | -105.90326 | 34947 ft | 478 kts | 137° |
| 2026-04-18 07:18 | 27.04607 | -105.84257 | 34950 ft | 478 kts | 137° |
| 2026-04-18 07:18 | 27.00752 | -105.78162 | 34942 ft | 479 kts | 137° |
| 2026-04-18 07:19 | 26.96893 | -105.72067 | 34929 ft | 479 kts | 137° |
| 2026-04-18 07:19 | 26.93020 | -105.65958 | 34939 ft | 480 kts | 137° |
| 2026-04-18 07:20 | 26.89163 | -105.59883 | 34944 ft | 481 kts | 137° |
| 2026-04-18 07:20 | 26.85272 | -105.53763 | 34937 ft | 482 kts | 137° |
| 2026-04-18 07:21 | 26.81377 | -105.47646 | 34928 ft | 482 kts | 137° |
| 2026-04-18 07:21 | 26.77504 | -105.41570 | 34937 ft | 482 kts | 137° |
| 2026-04-18 07:22 | 26.73602 | -105.35458 | 34925 ft | 482 kts | 137° |
| 2026-04-18 07:22 | 26.69702 | -105.29355 | 34928 ft | 482 kts | 137° |
| 2026-04-18 07:23 | 26.65798 | -105.23257 | 34922 ft | 482 kts | 137° |
| 2026-04-18 07:23 | 26.61915 | -105.17199 | 34924 ft | 482 kts | 137° |
| 2026-04-18 07:24 | 26.57996 | -105.11092 | 34920 ft | 483 kts | 137° |
| 2026-04-18 07:24 | 26.54093 | -105.05020 | 34925 ft | 483 kts | 137° |
| 2026-04-18 07:25 | 26.50166 | -104.98919 | 34917 ft | 484 kts | 137° |
| 2026-04-18 07:25 | 26.46227 | -104.92805 | 34922 ft | 484 kts | 137° |
| 2026-04-18 07:26 | 26.42301 | -104.86721 | 34917 ft | 485 kts | 137° |
| 2026-04-18 07:26 | 26.38346 | -104.80600 | 34917 ft | 486 kts | 137° |
| 2026-04-18 07:27 | 26.34385 | -104.74478 | 34915 ft | 486 kts | 137° |
| 2026-04-18 07:27 | 26.30450 | -104.68405 | 34907 ft | 486 kts | 137° |
| 2026-04-18 07:28 | 26.26486 | -104.62294 | 34907 ft | 486 kts | 137° |
| 2026-04-18 07:28 | 26.22508 | -104.56171 | 34902 ft | 486 kts | 137° |
| 2026-04-18 07:29 | 26.18551 | -104.50088 | 34901 ft | 486 kts | 137° |
| 2026-04-18 07:29 | 26.14575 | -104.43983 | 34897 ft | 486 kts | 137° |
| 2026-04-18 07:30 | 26.10608 | -104.37902 | 34903 ft | 485 kts | 137° |
| 2026-04-18 07:30 | 26.06659 | -104.31854 | 34896 ft | 485 kts | 137° |
| 2026-04-18 07:31 | 26.02691 | -104.25785 | 34893 ft | 484 kts | 137° |
| 2026-04-18 07:31 | 25.98744 | -104.19758 | 34892 ft | 484 kts | 137° |
| 2026-04-18 07:32 | 25.94776 | -104.13706 | 34892 ft | 484 kts | 137° |
| 2026-04-18 07:32 | 25.90795 | -104.07642 | 34884 ft | 484 kts | 137° |
| 2026-04-18 07:33 | 25.86841 | -104.01628 | 34889 ft | 484 kts | 137° |
| 2026-04-18 07:33 | 25.82859 | -103.95578 | 34882 ft | 485 kts | 137° |
| 2026-04-18 07:34 | 25.78867 | -103.89520 | 34878 ft | 485 kts | 137° |
| 2026-04-18 07:34 | 25.74899 | -103.83508 | 34877 ft | 485 kts | 137° |
| 2026-04-18 07:35 | 25.70902 | -103.77458 | 34867 ft | 486 kts | 137° |
| 2026-04-18 07:35 | 25.66901 | -103.71412 | 34871 ft | 486 kts | 137° |
| 2026-04-18 07:36 | 25.62910 | -103.65387 | 34867 ft | 487 kts | 137° |
| 2026-04-18 07:36 | 25.58896 | -103.59333 | 34842 ft | 486 kts | 137° |
| 2026-04-18 07:37 | 25.54870 | -103.53273 | 34858 ft | 488 kts | 137° |
| 2026-04-18 07:37 | 25.50863 | -103.47250 | 34864 ft | 488 kts | 137° |
| 2026-04-18 07:38 | 25.46821 | -103.41178 | 34871 ft | 488 kts | 137° |
| 2026-04-18 07:38 | 25.42801 | -103.35152 | 34863 ft | 488 kts | 137° |
| 2026-04-18 07:39 | 25.38763 | -103.29103 | 34862 ft | 489 kts | 136° |
| 2026-04-18 07:39 | 25.34733 | -103.23074 | 34863 ft | 489 kts | 136° |
| 2026-04-18 07:40 | 25.30684 | -103.17025 | 34864 ft | 488 kts | 136° |
| 2026-04-18 07:40 | 25.26645 | -103.10999 | 34861 ft | 488 kts | 137° |
| 2026-04-18 07:41 | 25.22595 | -103.04962 | 34870 ft | 488 kts | 136° |
| 2026-04-18 07:41 | 25.18570 | -102.98972 | 34863 ft | 487 kts | 136° |
| 2026-04-18 07:42 | 25.14516 | -102.92946 | 34868 ft | 487 kts | 136° |
| 2026-04-18 07:42 | 25.10495 | -102.86976 | 34868 ft | 487 kts | 136° |
| 2026-04-18 07:43 | 25.06446 | -102.80973 | 34867 ft | 487 kts | 136° |
| 2026-04-18 07:43 | 25.02396 | -102.74976 | 34866 ft | 487 kts | 136° |
| 2026-04-18 07:44 | 24.98369 | -102.69019 | 34870 ft | 486 kts | 136° |
| 2026-04-18 07:44 | 24.94313 | -102.63029 | 34868 ft | 486 kts | 136° |
| 2026-04-18 07:45 | 24.90264 | -102.57056 | 34875 ft | 486 kts | 136° |
| 2026-04-18 07:45 | 24.86233 | -102.51116 | 34873 ft | 486 kts | 136° |
| 2026-04-18 07:46 | 24.82185 | -102.45157 | 34865 ft | 485 kts | 136° |
| 2026-04-18 07:46 | 24.78131 | -102.39199 | 34871 ft | 485 kts | 136° |
| 2026-04-18 07:47 | 24.74077 | -102.33248 | 34876 ft | 485 kts | 136° |
| 2026-04-18 07:47 | 24.70057 | -102.27354 | 34878 ft | 484 kts | 136° |
| 2026-04-18 07:48 | 24.66003 | -102.21417 | 34880 ft | 484 kts | 136° |
| 2026-04-18 07:48 | 24.61949 | -102.15487 | 34870 ft | 485 kts | 136° |
| 2026-04-18 07:49 | 24.57908 | -102.09583 | 34880 ft | 485 kts | 136° |
| 2026-04-18 07:49 | 24.53838 | -102.03644 | 34888 ft | 484 kts | 136° |
| 2026-04-18 07:50 | 24.49778 | -101.97725 | 34890 ft | 484 kts | 136° |
| 2026-04-18 07:50 | 24.45746 | -101.91854 | 34888 ft | 482 kts | 136° |
| 2026-04-18 07:51 | 24.41697 | -101.85965 | 34903 ft | 481 kts | 136° |
| 2026-04-18 07:51 | 24.37684 | -101.80136 | 34913 ft | 480 kts | 135° |
| 2026-04-18 07:52 | 24.33650 | -101.74284 | 34913 ft | 479 kts | 135° |
| 2026-04-18 07:52 | 24.29649 | -101.68486 | 34921 ft | 478 kts | 135° |
| 2026-04-18 07:53 | 24.25635 | -101.62675 | 34925 ft | 477 kts | 135° |
| 2026-04-18 07:53 | 24.21633 | -101.56889 | 34939 ft | 477 kts | 135° |
| 2026-04-18 07:54 | 24.17622 | -101.51096 | 34946 ft | 476 kts | 135° |
| 2026-04-18 07:54 | 24.14113 | -101.46522 | 34951 ft | 471 kts | 140° |
| 2026-04-18 07:55 | 24.09052 | -101.40242 | 34958 ft | 472 kts | 139° |
| 2026-04-18 07:55 | 24.05455 | -101.35739 | 34960 ft | 472 kts | 139° |
| 2026-04-18 07:56 | 24.01124 | -101.30318 | 34960 ft | 472 kts | 139° |
| 2026-04-18 07:56 | 23.96816 | -101.24932 | 34970 ft | 472 kts | 139° |
| 2026-04-18 07:57 | 23.92481 | -101.19518 | 34971 ft | 472 kts | 139° |
| 2026-04-18 07:57 | 23.88169 | -101.14139 | 34975 ft | 472 kts | 139° |
| 2026-04-18 07:58 | 23.81685 | -101.06060 | 34977 ft | 472 kts | 139° |
| 2026-04-18 07:59 | 23.77351 | -101.00668 | 34982 ft | 472 kts | 139° |
| 2026-04-18 07:59 | 23.73011 | -100.95275 | 34987 ft | 472 kts | 139° |
| 2026-04-18 08:00 | 23.68664 | -100.89880 | 34991 ft | 473 kts | 139° |
| 2026-04-18 08:00 | 23.64342 | -100.84519 | 35003 ft | 472 kts | 139° |
| 2026-04-18 08:01 | 23.59994 | -100.79133 | 34999 ft | 473 kts | 138° |
| 2026-04-18 08:01 | 23.55642 | -100.73749 | 35002 ft | 472 kts | 139° |
| 2026-04-18 08:02 | 23.51323 | -100.68410 | 35006 ft | 472 kts | 138° |
| 2026-04-18 08:02 | 23.49143 | -100.65716 | 35253 ft | 472 kts | 139° |
| 2026-04-18 08:02 | 23.46972 | -100.63045 | 35576 ft | 470 kts | 139° |
| 2026-04-18 08:02 | 23.44801 | -100.60373 | 35832 ft | 470 kts | 139° |
| 2026-04-18 08:03 | 23.42636 | -100.57710 | 36095 ft | 469 kts | 139° |
| 2026-04-18 08:03 | 23.40466 | -100.55043 | 36356 ft | 469 kts | 139° |
| 2026-04-18 08:03 | 23.38323 | -100.52410 | 36604 ft | 468 kts | 139° |
| 2026-04-18 08:03 | 23.36153 | -100.49745 | 36876 ft | 468 kts | 139° |
| 2026-04-18 08:04 | 23.33992 | -100.47093 | 37014 ft | 468 kts | 139° |
| 2026-04-18 08:04 | 23.29668 | -100.41789 | 37003 ft | 466 kts | 139° |
| 2026-04-18 08:05 | 23.25382 | -100.36537 | 37015 ft | 467 kts | 139° |
| 2026-04-18 08:05 | 23.21062 | -100.31251 | 36993 ft | 467 kts | 139° |
| 2026-04-18 08:06 | 23.16730 | -100.25953 | 37002 ft | 467 kts | 139° |
| 2026-04-18 08:06 | 23.12429 | -100.20701 | 37004 ft | 467 kts | 139° |
| 2026-04-18 08:07 | 23.08124 | -100.15448 | 37003 ft | 467 kts | 139° |
| 2026-04-18 08:07 | 23.03806 | -100.10186 | 36990 ft | 466 kts | 139° |
| 2026-04-18 08:08 | 22.99481 | -100.04920 | 36991 ft | 467 kts | 139° |
| 2026-04-18 08:08 | 22.95165 | -99.99671 | 36987 ft | 467 kts | 139° |
| 2026-04-18 08:09 | 22.90826 | -99.94398 | 36982 ft | 468 kts | 139° |
| 2026-04-18 08:09 | 22.86482 | -99.89127 | 36988 ft | 468 kts | 139° |
| 2026-04-18 08:10 | 22.82139 | -99.83861 | 36976 ft | 468 kts | 139° |
| 2026-04-18 08:10 | 22.77819 | -99.78628 | 36975 ft | 468 kts | 139° |
| 2026-04-18 08:11 | 22.73467 | -99.73363 | 36963 ft | 468 kts | 138° |
| 2026-04-18 08:11 | 22.69126 | -99.68116 | 36961 ft | 468 kts | 138° |
| 2026-04-18 08:12 | 22.64788 | -99.62877 | 36957 ft | 468 kts | 138° |
| 2026-04-18 08:12 | 22.60449 | -99.57643 | 36953 ft | 466 kts | 138° |
| 2026-04-18 08:13 | 22.56109 | -99.52413 | 36946 ft | 466 kts | 138° |
| 2026-04-18 08:13 | 22.51773 | -99.47191 | 36943 ft | 464 kts | 138° |
| 2026-04-18 08:14 | 22.47458 | -99.42007 | 36928 ft | 465 kts | 138° |
| 2026-04-18 08:14 | 22.43143 | -99.36824 | 36908 ft | 464 kts | 138° |
| 2026-04-18 08:15 | 22.38832 | -99.31652 | 36929 ft | 464 kts | 138° |
| 2026-04-18 08:15 | 22.34490 | -99.26448 | 36919 ft | 463 kts | 138° |
| 2026-04-18 08:16 | 22.30210 | -99.21323 | 36915 ft | 463 kts | 138° |
| 2026-04-18 08:16 | 22.25891 | -99.16156 | 36898 ft | 463 kts | 138° |
| 2026-04-18 08:17 | 22.21563 | -99.10985 | 36894 ft | 463 kts | 138° |
| 2026-04-18 08:17 | 22.17241 | -99.05826 | 36892 ft | 463 kts | 138° |
| 2026-04-18 08:18 | 22.12924 | -99.00676 | 36887 ft | 464 kts | 138° |
| 2026-04-18 08:18 | 22.08609 | -98.95536 | 36880 ft | 464 kts | 138° |
| 2026-04-18 08:19 | 22.04280 | -98.90383 | 36876 ft | 464 kts | 138° |
| 2026-04-18 08:19 | 21.99928 | -98.85208 | 36873 ft | 464 kts | 138° |
| 2026-04-18 08:20 | 21.95585 | -98.80049 | 36873 ft | 465 kts | 138° |
| 2026-04-18 08:20 | 21.91252 | -98.74906 | 36867 ft | 465 kts | 138° |
| 2026-04-18 08:21 | 21.86918 | -98.69768 | 36868 ft | 465 kts | 137° |
| 2026-04-18 08:21 | 21.82569 | -98.64617 | 36863 ft | 464 kts | 137° |
| 2026-04-18 08:22 | 21.78211 | -98.59460 | 36862 ft | 464 kts | 137° |
| 2026-04-18 08:22 | 21.73882 | -98.54343 | 36859 ft | 464 kts | 137° |
| 2026-04-18 08:23 | 21.69557 | -98.49234 | 36860 ft | 464 kts | 137° |
| 2026-04-18 08:23 | 21.65207 | -98.44102 | 36861 ft | 464 kts | 137° |
| 2026-04-18 08:24 | 21.60862 | -98.38980 | 36861 ft | 464 kts | 137° |
| 2026-04-18 08:24 | 21.56502 | -98.33846 | 36886 ft | 464 kts | 137° |
| 2026-04-18 08:25 | 21.52147 | -98.28722 | 36899 ft | 464 kts | 137° |
| 2026-04-18 08:25 | 21.47808 | -98.23623 | 36887 ft | 465 kts | 137° |
| 2026-04-18 08:26 | 21.43438 | -98.18492 | 36895 ft | 465 kts | 137° |
| 2026-04-18 08:26 | 21.39090 | -98.13392 | 36903 ft | 465 kts | 137° |
| 2026-04-18 08:27 | 21.34719 | -98.08268 | 36899 ft | 465 kts | 137° |
| 2026-04-18 08:27 | 21.30338 | -98.03139 | 36884 ft | 465 kts | 137° |
| 2026-04-18 08:28 | 21.25971 | -97.98030 | 36892 ft | 466 kts | 137° |
| 2026-04-18 08:28 | 21.21578 | -97.92897 | 36890 ft | 466 kts | 137° |
| 2026-04-18 08:29 | 21.17184 | -97.87766 | 36898 ft | 466 kts | 137° |
| 2026-04-18 08:29 | 21.12811 | -97.82666 | 36896 ft | 466 kts | 136° |
| 2026-04-18 08:30 | 21.08434 | -97.77565 | 36893 ft | 467 kts | 136° |
| 2026-04-18 08:30 | 21.04028 | -97.72435 | 36891 ft | 467 kts | 136° |
| 2026-04-18 08:31 | 20.99649 | -97.67342 | 36894 ft | 467 kts | 136° |
| 2026-04-18 08:31 | 20.95244 | -97.62222 | 36888 ft | 467 kts | 136° |
| 2026-04-18 08:32 | 20.90831 | -97.57099 | 36890 ft | 467 kts | 136° |
| 2026-04-18 08:32 | 20.86423 | -97.51986 | 36889 ft | 467 kts | 136° |
| 2026-04-18 08:33 | 20.82021 | -97.46886 | 36887 ft | 467 kts | 136° |
| 2026-04-18 08:33 | 20.77601 | -97.41768 | 36888 ft | 467 kts | 136° |
| 2026-04-18 08:34 | 20.73215 | -97.36696 | 36886 ft | 467 kts | 136° |
| 2026-04-18 08:34 | 20.68795 | -97.31587 | 36885 ft | 467 kts | 136° |
| 2026-04-18 08:35 | 20.64374 | -97.26483 | 36884 ft | 467 kts | 136° |
| 2026-04-18 08:35 | 20.59982 | -97.21417 | 36879 ft | 467 kts | 136° |
| 2026-04-18 08:36 | 20.55557 | -97.16318 | 36882 ft | 467 kts | 136° |
| 2026-04-18 08:36 | 20.51131 | -97.11221 | 36878 ft | 467 kts | 136° |
| 2026-04-18 08:37 | 20.46729 | -97.06157 | 36878 ft | 467 kts | 136° |
| 2026-04-18 08:37 | 20.42303 | -97.01071 | 36879 ft | 467 kts | 136° |
| 2026-04-18 08:38 | 20.37897 | -96.96010 | 36878 ft | 467 kts | 136° |
| 2026-04-18 08:38 | 20.33454 | -96.90913 | 36876 ft | 467 kts | 136° |
| 2026-04-18 08:39 | 20.29024 | -96.85834 | 36875 ft | 467 kts | 136° |
| 2026-04-18 08:39 | 20.24933 | -96.81147 | 36875 ft | 467 kts | 136° |
| 2026-04-18 08:40 | 20.20503 | -96.76077 | 36877 ft | 467 kts | 136° |
| 2026-04-18 08:40 | 20.16456 | -96.70674 | 36878 ft | 470 kts | 130° |
| 2026-04-18 08:41 | 20.12441 | -96.65177 | 36882 ft | 469 kts | 130° |
| 2026-04-18 08:41 | 20.08403 | -96.59695 | 36882 ft | 470 kts | 130° |
| 2026-04-18 08:42 | 20.04378 | -96.54242 | 36884 ft | 470 kts | 130° |
| 2026-04-18 08:42 | 20.00332 | -96.48763 | 36881 ft | 470 kts | 130° |
| 2026-04-18 08:43 | 19.96310 | -96.43324 | 36879 ft | 470 kts | 130° |
| 2026-04-18 08:43 | 19.92262 | -96.37854 | 36880 ft | 470 kts | 130° |
| 2026-04-18 08:44 | 19.88244 | -96.32428 | 36884 ft | 470 kts | 130° |
| 2026-04-18 08:44 | 19.84874 | -96.27883 | 36879 ft | 470 kts | 130° |
| 2026-04-18 08:45 | 19.80829 | -96.22430 | 36882 ft | 470 kts | 130° |
| 2026-04-18 08:45 | 19.76770 | -96.16965 | 36878 ft | 470 kts | 130° |
| 2026-04-18 08:46 | 19.72715 | -96.11509 | 36878 ft | 470 kts | 130° |
| 2026-04-18 08:46 | 19.68653 | -96.06049 | 36877 ft | 471 kts | 130° |
| 2026-04-18 08:47 | 19.64618 | -96.00631 | 36877 ft | 471 kts | 130° |
| 2026-04-18 08:47 | 19.60541 | -95.95162 | 36880 ft | 471 kts | 130° |
| 2026-04-18 08:48 | 19.56497 | -95.89740 | 36877 ft | 471 kts | 130° |
| 2026-04-18 08:48 | 19.52423 | -95.84284 | 36879 ft | 471 kts | 130° |
| 2026-04-18 08:49 | 19.48344 | -95.78827 | 36877 ft | 471 kts | 130° |
| 2026-04-18 08:49 | 19.44267 | -95.73376 | 36874 ft | 471 kts | 130° |
| 2026-04-18 08:50 | 19.40216 | -95.67965 | 36873 ft | 471 kts | 130° |
| 2026-04-18 08:50 | 19.36130 | -95.62513 | 36873 ft | 471 kts | 130° |
| 2026-04-18 08:51 | 19.32081 | -95.57114 | 36873 ft | 471 kts | 130° |
| 2026-04-18 08:51 | 19.27989 | -95.51663 | 36875 ft | 471 kts | 130° |
| 2026-04-18 08:52 | 19.23933 | -95.46266 | 36874 ft | 471 kts | 130° |
| 2026-04-18 08:52 | 19.19855 | -95.40844 | 36873 ft | 470 kts | 130° |
| 2026-04-18 08:53 | 19.15762 | -95.35407 | 36874 ft | 470 kts | 130° |
| 2026-04-18 08:53 | 19.11702 | -95.30017 | 36872 ft | 470 kts | 130° |
| 2026-04-18 08:54 | 19.07638 | -95.24626 | 36874 ft | 470 kts | 130° |
| 2026-04-18 08:54 | 19.03549 | -95.19207 | 36873 ft | 470 kts | 130° |
| 2026-04-18 08:55 | 18.99463 | -95.13796 | 36869 ft | 470 kts | 130° |
| 2026-04-18 08:55 | 18.95407 | -95.08425 | 36871 ft | 470 kts | 130° |
| 2026-04-18 08:56 | 18.91324 | -95.03022 | 36873 ft | 469 kts | 130° |
| 2026-04-18 08:56 | 18.87242 | -94.97625 | 36877 ft | 469 kts | 130° |
| 2026-04-18 08:57 | 18.81144 | -94.89570 | 36879 ft | 469 kts | 130° |
| 2026-04-18 08:57 | 18.77066 | -94.84189 | 36879 ft | 469 kts | 130° |
| 2026-04-18 08:58 | 18.72993 | -94.78821 | 36877 ft | 470 kts | 130° |
| 2026-04-18 08:58 | 18.68898 | -94.73426 | 36879 ft | 470 kts | 130° |
| 2026-04-18 08:59 | 18.64834 | -94.68079 | 36881 ft | 469 kts | 130° |
| 2026-04-18 08:59 | 18.60738 | -94.62693 | 36881 ft | 469 kts | 130° |
| 2026-04-18 09:00 | 18.56647 | -94.57319 | 36882 ft | 470 kts | 130° |
| 2026-04-18 09:00 | 18.52574 | -94.51973 | 36879 ft | 470 kts | 130° |
| 2026-04-18 09:01 | 18.48474 | -94.46595 | 36877 ft | 470 kts | 130° |
| 2026-04-18 09:01 | 18.44387 | -94.41239 | 36875 ft | 470 kts | 130° |
| 2026-04-18 09:02 | 18.40275 | -94.35856 | 36874 ft | 470 kts | 130° |
| 2026-04-18 09:02 | 18.36168 | -94.30483 | 36872 ft | 470 kts | 130° |
| 2026-04-18 09:03 | 18.32085 | -94.25147 | 36870 ft | 470 kts | 130° |
| 2026-04-18 09:03 | 18.27963 | -94.19763 | 36871 ft | 470 kts | 130° |
| 2026-04-18 09:04 | 18.23865 | -94.14415 | 36869 ft | 470 kts | 130° |
| 2026-04-18 09:04 | 18.19763 | -94.09067 | 36872 ft | 470 kts | 129° |
| 2026-04-18 09:05 | 18.15647 | -94.03705 | 36870 ft | 470 kts | 129° |
| 2026-04-18 09:05 | 18.11557 | -93.98381 | 36872 ft | 470 kts | 129° |
| 2026-04-18 09:06 | 18.07445 | -93.93033 | 36868 ft | 470 kts | 129° |
| 2026-04-18 09:06 | 18.03330 | -93.87686 | 36872 ft | 469 kts | 129° |
| 2026-04-18 09:07 | 17.99241 | -93.82376 | 36871 ft | 470 kts | 129° |
| 2026-04-18 09:07 | 17.95128 | -93.77040 | 36870 ft | 469 kts | 129° |
| 2026-04-18 09:08 | 17.91013 | -93.71706 | 36871 ft | 469 kts | 129° |
| 2026-04-18 09:08 | 17.86930 | -93.66418 | 36870 ft | 469 kts | 129° |
| 2026-04-18 09:09 | 17.82816 | -93.61094 | 36865 ft | 469 kts | 129° |
| 2026-04-18 09:09 | 17.78697 | -93.55766 | 36869 ft | 469 kts | 129° |
| 2026-04-18 09:10 | 17.74606 | -93.50481 | 36869 ft | 468 kts | 129° |
| 2026-04-18 09:10 | 17.70480 | -93.45153 | 36870 ft | 468 kts | 129° |
| 2026-04-18 09:11 | 17.66382 | -93.39868 | 36869 ft | 468 kts | 129° |
| 2026-04-18 09:11 | 17.62285 | -93.34586 | 36871 ft | 468 kts | 129° |
| 2026-04-18 09:12 | 17.58164 | -93.29279 | 36874 ft | 468 kts | 129° |
| 2026-04-18 09:12 | 17.54042 | -93.23974 | 36883 ft | 468 kts | 129° |
| 2026-04-18 09:13 | 17.49946 | -93.18707 | 36884 ft | 468 kts | 129° |
| 2026-04-18 09:13 | 17.45837 | -93.13427 | 36891 ft | 468 kts | 129° |
| 2026-04-18 09:14 | 17.41742 | -93.08170 | 36903 ft | 468 kts | 129° |
| 2026-04-18 09:14 | 17.37606 | -93.02864 | 36906 ft | 469 kts | 129° |
| 2026-04-18 09:15 | 17.33492 | -92.97590 | 36915 ft | 469 kts | 129° |
| 2026-04-18 09:15 | 17.29342 | -92.92275 | 36926 ft | 470 kts | 129° |
| 2026-04-18 09:16 | 17.25231 | -92.87012 | 36933 ft | 470 kts | 129° |
| 2026-04-18 09:16 | 17.21072 | -92.81694 | 36940 ft | 470 kts | 129° |
| 2026-04-18 09:17 | 17.16948 | -92.76424 | 36943 ft | 469 kts | 129° |
| 2026-04-18 09:17 | 17.12799 | -92.71127 | 36958 ft | 469 kts | 129° |
| 2026-04-18 09:18 | 17.08684 | -92.65878 | 36960 ft | 469 kts | 129° |
| 2026-04-18 09:18 | 17.04544 | -92.60598 | 36967 ft | 469 kts | 129° |
| 2026-04-18 09:19 | 17.00396 | -92.55315 | 36971 ft | 469 kts | 129° |
| 2026-04-18 09:19 | 16.96275 | -92.50069 | 36980 ft | 469 kts | 129° |
| 2026-04-18 09:20 | 16.92126 | -92.44792 | 36994 ft | 469 kts | 129° |
| 2026-04-18 09:20 | 16.88006 | -92.39555 | 36991 ft | 469 kts | 129° |
| 2026-04-18 09:21 | 16.83864 | -92.34295 | 37003 ft | 468 kts | 129° |
| 2026-04-18 09:21 | 16.79719 | -92.29035 | 37005 ft | 468 kts | 129° |
| 2026-04-18 09:22 | 16.75580 | -92.23787 | 37007 ft | 468 kts | 129° |
| 2026-04-18 09:22 | 16.71460 | -92.18565 | 37010 ft | 468 kts | 129° |
| 2026-04-18 09:23 | 16.67315 | -92.13317 | 37014 ft | 468 kts | 129° |
| 2026-04-18 09:23 | 16.63164 | -92.08066 | 37018 ft | 468 kts | 129° |
| 2026-04-18 09:24 | 16.59030 | -92.02839 | 37019 ft | 468 kts | 129° |
| 2026-04-18 09:24 | 16.54910 | -91.97634 | 37019 ft | 468 kts | 129° |
| 2026-04-18 09:25 | 16.50752 | -91.92386 | 37019 ft | 468 kts | 128° |
| 2026-04-18 09:25 | 16.46603 | -91.87152 | 37015 ft | 468 kts | 129° |
| 2026-04-18 09:26 | 16.42446 | -91.81911 | 37017 ft | 468 kts | 128° |
| 2026-04-18 09:26 | 16.38318 | -91.76712 | 37010 ft | 468 kts | 129° |
| 2026-04-18 09:27 | 16.34155 | -91.71472 | 37009 ft | 468 kts | 128° |
| 2026-04-18 09:27 | 16.30011 | -91.66259 | 37009 ft | 468 kts | 128° |
| 2026-04-18 09:28 | 16.25858 | -91.61038 | 37011 ft | 468 kts | 128° |
| 2026-04-18 09:28 | 16.21690 | -91.55802 | 37013 ft | 468 kts | 128° |
| 2026-04-18 09:29 | 16.17547 | -91.50602 | 37006 ft | 468 kts | 128° |
| 2026-04-18 09:29 | 16.13369 | -91.45360 | 37010 ft | 469 kts | 128° |
| 2026-04-18 09:30 | 16.09219 | -91.40165 | 37011 ft | 469 kts | 130° |
| 2026-04-18 09:30 | 16.06844 | -91.37865 | 37000 ft | 469 kts | 145° |
| 2026-04-18 09:30 | 16.05014 | -91.36670 | 37029 ft | 470 kts | 148° |
| 2026-04-18 09:31 | 15.98508 | -91.32518 | 37021 ft | 472 kts | 148° |
| 2026-04-18 09:31 | 15.92877 | -91.28996 | 37033 ft | 472 kts | 148° |
| 2026-04-18 09:32 | 15.91003 | -91.27827 | 36863 ft | 474 kts | 148° |
| 2026-04-18 09:32 | 15.88175 | -91.26065 | 36202 ft | 472 kts | 148° |
| 2026-04-18 09:32 | 15.85347 | -91.24303 | 35457 ft | 474 kts | 148° |
| 2026-04-18 09:32 | 15.82515 | -91.22539 | 34758 ft | 476 kts | 148° |
| 2026-04-18 09:33 | 15.79658 | -91.20761 | 34074 ft | 478 kts | 148° |
| 2026-04-18 09:33 | 15.76826 | -91.18999 | 33263 ft | 480 kts | 148° |
| 2026-04-18 09:33 | 15.73947 | -91.17208 | 32497 ft | 482 kts | 148° |
| 2026-04-18 09:33 | 15.71060 | -91.15412 | 31751 ft | 483 kts | 148° |
| 2026-04-18 09:34 | 15.68170 | -91.13615 | 30956 ft | 485 kts | 148° |
| 2026-04-18 09:34 | 15.65260 | -91.11806 | 30134 ft | 488 kts | 148° |
| 2026-04-18 09:34 | 15.62374 | -91.10013 | 29349 ft | 487 kts | 148° |
| 2026-04-18 09:34 | 15.59467 | -91.08208 | 28678 ft | 483 kts | 148° |
| 2026-04-18 09:35 | 15.56591 | -91.06423 | 28043 ft | 476 kts | 148° |
| 2026-04-18 09:35 | 15.53747 | -91.04658 | 27385 ft | 473 kts | 148° |
| 2026-04-18 09:35 | 15.50953 | -91.02924 | 26736 ft | 473 kts | 147° |
| 2026-04-18 09:35 | 15.48136 | -91.01177 | 26101 ft | 469 kts | 147° |
| 2026-04-18 09:36 | 15.45346 | -90.99447 | 25470 ft | 464 kts | 147° |
| 2026-04-18 09:36 | 15.42573 | -90.97729 | 24828 ft | 462 kts | 147° |
| 2026-04-18 09:36 | 15.39806 | -90.96014 | 24191 ft | 461 kts | 147° |
| 2026-04-18 09:36 | 15.37088 | -90.94339 | 23428 ft | 460 kts | 149° |
| 2026-04-18 09:37 | 15.34081 | -90.93140 | 22611 ft | 464 kts | 167° |
| 2026-04-18 09:37 | 15.30904 | -90.92979 | 22415 ft | 452 kts | 185° |
| 2026-04-18 09:37 | 15.27910 | -90.93789 | 22227 ft | 441 kts | 203° |
| 2026-04-18 09:37 | 15.25345 | -90.95448 | 22040 ft | 429 kts | 221° |
| 2026-04-18 09:38 | 15.23403 | -90.97769 | 21830 ft | 429 kts | 238° |
| 2026-04-18 09:38 | 15.22179 | -91.00579 | 21574 ft | 439 kts | 255° |
| 2026-04-18 09:38 | 15.21776 | -91.03719 | 21330 ft | 441 kts | 272° |
| 2026-04-18 09:38 | 15.22258 | -91.06843 | 21095 ft | 441 kts | 289° |
| 2026-04-18 09:39 | 15.23575 | -91.09699 | 20876 ft | 437 kts | 306° |
| 2026-04-18 09:39 | 15.25580 | -91.12033 | 20654 ft | 433 kts | 322° |
| 2026-04-18 09:39 | 15.28002 | -91.13806 | 20462 ft | 431 kts | 328° |
| 2026-04-18 09:39 | 15.30518 | -91.15521 | 20235 ft | 430 kts | 329° |
| 2026-04-18 09:40 | 15.33040 | -91.17201 | 20017 ft | 429 kts | 329° |
| 2026-04-18 09:40 | 15.35550 | -91.18887 | 19806 ft | 428 kts | 328° |
| 2026-04-18 09:40 | 15.38129 | -91.20365 | 19587 ft | 423 kts | 341° |
| 2026-04-18 09:40 | 15.40941 | -91.21063 | 19385 ft | 418 kts | 357° |
| 2026-04-18 09:41 | 15.43833 | -91.20891 | 19176 ft | 413 kts | 14° |
| 2026-04-18 09:41 | 15.46512 | -91.19884 | 18985 ft | 409 kts | 30° |
| 2026-04-18 09:41 | 15.48787 | -91.18143 | 18786 ft | 405 kts | 46° |
| 2026-04-18 09:41 | 15.50463 | -91.15850 | 18598 ft | 403 kts | 62° |
| 2026-04-18 09:42 | 15.51475 | -91.13154 | 18408 ft | 401 kts | 77° |
| 2026-04-18 09:42 | 15.51763 | -91.10289 | 18192 ft | 400 kts | 91° |
| 2026-04-18 09:42 | 15.51339 | -91.07480 | 18007 ft | 400 kts | 105° |
| 2026-04-18 09:42 | 15.50233 | -91.04833 | 17951 ft | 402 kts | 120° |
| 2026-04-18 09:43 | 15.48555 | -91.02501 | 17936 ft | 405 kts | 133° |
| 2026-04-18 09:43 | 15.46381 | -91.00618 | 17951 ft | 407 kts | 142° |
| 2026-04-18 09:43 | 15.44063 | -90.98928 | 17946 ft | 408 kts | 144° |
| 2026-04-18 09:43 | 15.41714 | -90.97335 | 17948 ft | 408 kts | 146° |
| 2026-04-18 09:44 | 15.39305 | -90.95770 | 17951 ft | 409 kts | 146° |
| 2026-04-18 09:44 | 15.36867 | -90.94241 | 17953 ft | 409 kts | 150° |
| 2026-04-18 09:44 | 15.34173 | -90.93256 | 17960 ft | 412 kts | 169° |
| 2026-04-18 09:44 | 15.31292 | -90.93242 | 17962 ft | 417 kts | 188° |
| 2026-04-18 09:45 | 15.28550 | -90.94230 | 17976 ft | 420 kts | 208° |
| 2026-04-18 09:45 | 15.26267 | -90.96070 | 17979 ft | 423 kts | 226° |
| 2026-04-18 09:45 | 15.24616 | -90.98592 | 17979 ft | 425 kts | 245° |
| 2026-04-18 09:45 | 15.23774 | -91.01516 | 17982 ft | 425 kts | 263° |
| 2026-04-18 09:46 | 15.23775 | -91.04569 | 17983 ft | 424 kts | 279° |
| 2026-04-18 09:46 | 15.24579 | -91.07500 | 17984 ft | 423 kts | 295° |
| 2026-04-18 09:46 | 15.26066 | -91.10111 | 17987 ft | 421 kts | 308° |
| 2026-04-18 09:46 | 15.28040 | -91.12336 | 17987 ft | 419 kts | 320° |
| 2026-04-18 09:47 | 15.30281 | -91.14218 | 17979 ft | 419 kts | 324° |
| 2026-04-18 09:47 | 15.32605 | -91.16040 | 17981 ft | 418 kts | 325° |
| 2026-04-18 09:47 | 15.34961 | -91.17810 | 17976 ft | 418 kts | 326° |
| 2026-04-18 09:47 | 15.37342 | -91.19542 | 17971 ft | 417 kts | 331° |
| 2026-04-18 09:48 | 15.39985 | -91.20726 | 17969 ft | 413 kts | 347° |
| 2026-04-18 09:48 | 15.42817 | -91.21045 | 17966 ft | 409 kts | 5° |
| 2026-04-18 09:48 | 15.45599 | -91.20488 | 17963 ft | 405 kts | 21° |
| 2026-04-18 09:48 | 15.48058 | -91.19152 | 17958 ft | 402 kts | 38° |
| 2026-04-18 09:49 | 15.50048 | -91.17132 | 17943 ft | 400 kts | 54° |
| 2026-04-18 09:49 | 15.51381 | -91.14603 | 17951 ft | 399 kts | 70° |
| 2026-04-18 09:49 | 15.51993 | -91.11802 | 17943 ft | 399 kts | 85° |
| 2026-04-18 09:49 | 15.51883 | -91.08927 | 17937 ft | 400 kts | 99° |
| 2026-04-18 09:50 | 15.51091 | -91.06201 | 17935 ft | 402 kts | 113° |
| 2026-04-18 09:50 | 15.49665 | -91.03704 | 17941 ft | 404 kts | 126° |
| 2026-04-18 09:50 | 15.47686 | -91.01635 | 17944 ft | 406 kts | 140° |
| 2026-04-18 09:50 | 15.45408 | -90.99882 | 17950 ft | 408 kts | 143° |
| 2026-04-18 09:51 | 15.43054 | -90.98228 | 17952 ft | 408 kts | 145° |
| 2026-04-18 09:51 | 15.40654 | -90.96638 | 17949 ft | 408 kts | 146° |
| 2026-04-18 09:51 | 15.38264 | -90.95103 | 17925 ft | 409 kts | 147° |
| 2026-04-18 09:51 | 15.35833 | -90.93568 | 17764 ft | 409 kts | 147° |
| 2026-04-18 09:52 | 15.33403 | -90.92054 | 17548 ft | 407 kts | 147° |
| 2026-04-18 09:52 | 15.30976 | -90.90549 | 17342 ft | 405 kts | 147° |
| 2026-04-18 09:52 | 15.28549 | -90.89047 | 17125 ft | 404 kts | 147° |
| 2026-04-18 09:52 | 15.26134 | -90.87553 | 16913 ft | 403 kts | 148° |
| 2026-04-18 09:53 | 15.23758 | -90.86083 | 16701 ft | 401 kts | 148° |
| 2026-04-18 09:53 | 15.21358 | -90.84600 | 16491 ft | 401 kts | 148° |
| 2026-04-18 09:53 | 15.18964 | -90.83121 | 16280 ft | 400 kts | 148° |
| 2026-04-18 09:53 | 15.16567 | -90.81640 | 16065 ft | 399 kts | 148° |
| 2026-04-18 09:54 | 15.14211 | -90.80185 | 15853 ft | 398 kts | 148° |
| 2026-04-18 09:54 | 15.11824 | -90.78711 | 15652 ft | 397 kts | 148° |
| 2026-04-18 09:54 | 15.09446 | -90.77243 | 15445 ft | 396 kts | 148° |
| 2026-04-18 09:54 | 15.07084 | -90.75786 | 15237 ft | 393 kts | 148° |
| 2026-04-18 09:55 | 15.04795 | -90.74373 | 15203 ft | 377 kts | 148° |
| 2026-04-18 09:55 | 15.02591 | -90.73015 | 15168 ft | 363 kts | 148° |
| 2026-04-18 09:55 | 15.00447 | -90.71691 | 14975 ft | 354 kts | 148° |
| 2026-04-18 09:55 | 14.98356 | -90.70402 | 14774 ft | 347 kts | 148° |
| 2026-04-18 09:56 | 14.96293 | -90.69131 | 14579 ft | 340 kts | 148° |
| 2026-04-18 09:56 | 14.94300 | -90.67903 | 14391 ft | 333 kts | 148° |
| 2026-04-18 09:56 | 14.92314 | -90.66679 | 14185 ft | 328 kts | 148° |
| 2026-04-18 09:56 | 14.90361 | -90.65476 | 13920 ft | 326 kts | 148° |
| 2026-04-18 09:57 | 14.88406 | -90.64273 | 13487 ft | 328 kts | 148° |
| 2026-04-18 09:57 | 14.86439 | -90.63061 | 13074 ft | 327 kts | 148° |
| 2026-04-18 09:57 | 14.84510 | -90.61874 | 12686 ft | 325 kts | 148° |
| 2026-04-18 09:57 | 14.82577 | -90.60684 | 12304 ft | 322 kts | 148° |
| 2026-04-18 09:58 | 14.80650 | -90.59499 | 11907 ft | 320 kts | 148° |
| 2026-04-18 09:58 | 14.78699 | -90.58452 | 11498 ft | 319 kts | 156° |
| 2026-04-18 09:58 | 14.76595 | -90.57717 | 11079 ft | 318 kts | 166° |
| 2026-04-18 09:58 | 14.74420 | -90.57341 | 10720 ft | 314 kts | 175° |
| 2026-04-18 09:59 | 14.72268 | -90.57337 | 10368 ft | 305 kts | 184° |
| 2026-04-18 09:59 | 14.70209 | -90.57679 | 9994 ft | 302 kts | 193° |
| 2026-04-18 09:59 | 14.68218 | -90.58309 | 9726 ft | 291 kts | 198° |
| 2026-04-18 10:00 | 14.64650 | -90.59526 | 9491 ft | 247 kts | 197° |
| 2026-04-18 10:00 | 14.63077 | -90.60063 | 9357 ft | 227 kts | 197° |
| 2026-04-18 10:00 | 14.61634 | -90.60555 | 9194 ft | 212 kts | 197° |
| 2026-04-18 10:00 | 14.60257 | -90.61024 | 9032 ft | 205 kts | 197° |
| 2026-04-18 10:01 | 14.58918 | -90.61481 | 8865 ft | 205 kts | 197° |
| 2026-04-18 10:01 | 14.57574 | -90.61938 | 8736 ft | 200 kts | 197° |
| 2026-04-18 10:01 | 14.56255 | -90.62388 | 8591 ft | 200 kts | 197° |
| 2026-04-18 10:01 | 14.54954 | -90.62828 | 8480 ft | 191 kts | 195° |
| 2026-04-18 10:02 | 14.53729 | -90.63090 | 8407 ft | 172 kts | 184° |
| 2026-04-18 10:02 | 14.52563 | -90.63059 | 8184 ft | 168 kts | 169° |
| 2026-04-18 10:02 | 14.51463 | -90.62698 | 7906 ft | 164 kts | 153° |
| 2026-04-18 10:02 | 14.50520 | -90.62037 | 7572 ft | 164 kts | 136° |
| 2026-04-18 10:03 | 14.49804 | -90.61138 | 7178 ft | 162 kts | 119° |
| 2026-04-18 10:03 | 14.49357 | -90.60086 | 6851 ft | 157 kts | 104° |
| 2026-04-18 10:03 | 14.49200 | -90.58991 | 6660 ft | 156 kts | 89° |
| 2026-04-18 10:03 | 14.49321 | -90.57876 | 6557 ft | 156 kts | 75° |
| 2026-04-18 10:04 | 14.49697 | -90.56831 | 6449 ft | 156 kts | 61° |
| 2026-04-18 10:04 | 14.50320 | -90.55900 | 6330 ft | 155 kts | 47° |
| 2026-04-18 10:04 | 14.51119 | -90.55180 | 6195 ft | 155 kts | 34° |
| 2026-04-18 10:04 | 14.52083 | -90.54689 | 6013 ft | 154 kts | 19° |
| 2026-04-18 10:05 | 14.53106 | -90.54389 | 5808 ft | 152 kts | 14° |
| 2026-04-18 10:05 | 14.54125 | -90.54085 | 5486 ft | 150 kts | 17° |
| 2026-04-18 10:05 | 14.55116 | -90.53758 | 5293 ft | 148 kts | 17° |
| 2026-04-18 10:05 | 14.56119 | -90.53452 | 5159 ft | 151 kts | 17° |
| 2026-04-18 10:06 | 14.57110 | -90.53137 | 4914 ft | 148 kts | 17° |
| 2026-04-18 10:06 | 14.57991 | -90.52856 | 4920 ft | 111 kts | 17° |
| 2026-04-18 10:06 | 14.58570 | -90.52673 | 4932 ft | 68 kts | 17° |
| 2026-04-18 10:06 | 14.58745 | -90.52625 | 4935 ft | 8 kts | 346° |
| 2026-04-18 10:07 | 14.58767 | -90.52651 | 4934 ft | 4 kts | 294° |
| 2026-04-18 10:07 | 14.58778 | -90.52680 | 4935 ft | 4 kts | 288° |
| 2026-04-18 10:07 | 14.58789 | -90.52714 | 4935 ft | 5 kts | 288° |
| 2026-04-18 10:07 | 14.58797 | -90.52754 | 4935 ft | 6 kts | 276° |
| 2026-04-18 10:08 | 14.58802 | -90.52804 | 4935 ft | 7 kts | 280° |
| 2026-04-18 10:08 | 14.58813 | -90.52845 | 4935 ft | 6 kts | 287° |
| 2026-04-18 10:08 | 14.58826 | -90.52889 | 4935 ft | 7 kts | 287° |
| 2026-04-18 10:08 | 14.58835 | -90.52921 | 4934 ft | 2 kts | 287° |
| 2026-04-18 10:09 | 14.58836 | -90.52923 | 4934 ft | 0 kts | 288° |